Time;durP1;ratioP1;P1;durP2;ratioP2;P2;SDS_P1;SDS_P2;PMS_P1;PMS_P2;Temp;Humidity;BMP_temperature;BMP_pressure;BME280_temperature;BME280_humidity;BME280_pressure;Samples;Min_cycle;Max_cycle;Signal;HPM_P1;HPM_P2
2022/11/25 00:00:13;;;;;;;0.33;0.33;;;;;;;;;;10506949;28;20044;-75
2022/11/25 00:05:27;;;;;;;3.67;1.00;;;;;;;;;;10499488;28;20059;-75
2022/11/25 00:10:29;;;;;;;1.47;0.90;;;;;;;;;;10517487;28;20080;-75
2022/11/25 00:15:33;;;;;;;2.15;1.10;;;;;;;;;;10510753;28;20515;-75
2022/11/25 00:20:38;;;;;;;1.88;1.10;;;;;;;;;;10522968;28;20115;-74
2022/11/25 00:25:40;;;;;;;;;;;;;;;;;;10520854;28;20048;-74
2022/11/25 00:30:44;;;;;;;1.10;0.67;;;;;;;;;;10521294;28;19966;-74
2022/11/25 00:35:48;;;;;;;2.03;0.40;;;;;;;;;;10526645;28;20440;-75
2022/11/25 00:44:34;;;;;;;2.73;1.47;;;;;;;;;;10522369;28;20109;-77
2022/11/25 00:46:18;;;;;;;6.22;1.60;;;;;;;;;;10514467;28;20044;-76
2022/11/25 00:51:22;;;;;;;8.77;2.93;;;;;;;;;;10518568;28;20051;-75
2022/11/25 00:56:25;;;;;;;8.55;2.58;;;;;;;;;;10528412;28;20398;-75
2022/11/25 01:01:27;;;;;;;6.80;1.70;;;;;;;;;;10529614;28;20428;-74
2022/11/25 01:06:31;;;;;;;3.03;1.13;;;;;;;;;;10512060;28;20040;-75
2022/11/25 01:11:34;;;;;;;2.60;1.25;;;;;;;;;;10525165;28;20040;-74
2022/11/25 01:16:37;;;;;;;1.30;0.87;;;;;;;;;;10514250;28;20043;-74
2022/11/25 01:21:41;;;;;;;2.97;2.03;;;;;;;;;;10515676;28;20097;-75
2022/11/25 01:26:44;;;;;;;8.68;2.75;;;;;;;;;;10523528;28;20126;-75
2022/11/25 01:31:47;;;;;;;2.70;1.40;;;;;;;;;;10517127;28;20055;-75
2022/11/25 01:36:51;;;;;;;3.87;1.83;;;;;;;;;;10512801;28;20489;-75
2022/11/25 01:41:54;;;;;;;9.95;2.45;;;;;;;;;;10513377;28;20044;-75
2022/11/25 01:47:05;;;;;;;1.93;0.50;;;;;;;;;;10511950;28;20086;-75
2022/11/25 01:52:12;;;;;;;14.90;3.63;;;;;;;;;;10522190;28;20048;-74
2022/11/25 01:57:17;;;;;;;2.40;0.93;;;;;;;;;;10520505;28;20077;-75
2022/11/25 02:02:20;;;;;;;10.30;2.60;;;;;;;;;;10507545;28;20093;-76
2022/11/25 02:07:27;;;;;;;4.37;1.80;;;;;;;;;;10514993;28;20294;-77
2022/11/25 02:12:30;;;;;;;2.70;1.20;;;;;;;;;;10508558;28;20107;-76
2022/11/25 02:17:33;;;;;;;1.77;1.03;;;;;;;;;;10514968;28;20036;-75
2022/11/25 02:22:45;;;;;;;2.60;1.17;;;;;;;;;;10509316;28;20486;-75
2022/11/25 02:27:51;;;;;;;0.40;0.40;;;;;;;;;;10518705;28;20093;-76
2022/11/25 02:32:54;;;;;;;3.90;1.10;;;;;;;;;;10511183;28;20086;-75
2022/11/25 02:37:58;;;;;;;7.10;1.90;;;;;;;;;;10518229;28;20440;-76
2022/11/25 02:43:02;;;;;;;1.98;1.10;;;;;;;;;;10510007;28;20036;-75
2022/11/25 02:48:04;;;;;;;3.38;1.42;;;;;;;;;;10519550;28;20150;-76
2022/11/25 02:53:07;;;;;;;3.20;1.60;;;;;;;;;;10510360;28;20489;-75
2022/11/25 02:58:11;;;;;;;14.57;3.27;;;;;;;;;;10511788;28;20036;-76
2022/11/25 03:03:14;;;;;;;;;;;;;;;;;;10517091;28;20508;-75
2022/11/25 03:08:16;;;;;;;1.10;0.83;;;;;;;;;;10516086;28;19920;-75
2022/11/25 03:13:20;;;;;;;1.77;0.80;;;;;;;;;;10519692;28;20046;-75
2022/11/25 03:18:23;;;;;;;6.53;1.30;;;;;;;;;;10520004;28;20044;-75
2022/11/25 03:23:25;;;;;;;3.13;1.23;;;;;;;;;;10508814;28;20097;-74
2022/11/25 03:28:29;;;;;;;0.20;0.20;;;;;;;;;;10517111;28;20486;-75
2022/11/25 03:33:32;;;;;;;;;;;;;;;;;;10506725;28;20434;-75
2022/11/25 03:38:35;;;;;;;4.47;1.33;;;;;;;;;;10511871;28;20313;-75
2022/11/25 03:43:39;;;;;;;4.50;1.40;;;;;;;;;;10525320;28;20040;-77
2022/11/25 03:48:42;;;;;;;4.68;1.33;;;;;;;;;;10514097;28;20125;-76
2022/11/25 03:53:45;;;;;;;2.53;0.97;;;;;;;;;;10513815;28;20037;-77
2022/11/25 03:58:49;;;;;;;2.07;1.00;;;;;;;;;;10517427;28;20041;-74
2022/11/25 04:03:51;;;;;;;1.92;0.90;;;;;;;;;;10501062;28;20078;-76
2022/11/25 04:08:55;;;;;;;5.07;1.25;;;;;;;;;;10510077;28;20132;-76
2022/11/25 04:13:59;;;;;;;3.85;1.13;;;;;;;;;;10508285;28;20081;-76
2022/11/25 04:19:02;;;;;;;1.52;1.00;;;;;;;;;;10506199;28;20048;-74
2022/11/25 04:24:05;;;;;;;3.13;1.10;;;;;;;;;;10507546;28;20044;-74
2022/11/25 04:29:09;;;;;;;2.50;1.07;;;;;;;;;;10508299;28;20044;-74
2022/11/25 04:34:12;;;;;;;3.35;1.40;;;;;;;;;;10503891;28;20040;-75
2022/11/25 04:39:14;;;;;;;1.93;1.03;;;;;;;;;;10517326;28;20045;-75
2022/11/25 04:44:18;;;;;;;3.28;1.50;;;;;;;;;;10509661;28;20401;-76
2022/11/25 04:49:21;;;;;;;2.45;1.30;;;;;;;;;;10517039;28;20036;-76
2022/11/25 04:54:23;;;;;;;4.38;1.85;;;;;;;;;;10513242;28;20036;-75
2022/11/25 04:59:39;;;;;;;3.97;1.30;;;;;;;;;;10525254;28;20075;-75
2022/11/25 05:04:43;;;;;;;2.43;1.20;;;;;;;;;;10511496;28;20043;-75
2022/11/25 05:09:46;;;;;;;3.85;1.20;;;;;;;;;;10523141;28;20094;-76
2022/11/25 05:14:50;;;;;;;2.03;1.20;;;;;;;;;;10525204;28;20508;-76
2022/11/25 05:19:53;;;;;;;3.63;1.23;;;;;;;;;;10515997;28;20036;-75
2022/11/25 05:24:56;;;;;;;2.93;1.40;;;;;;;;;;10505514;28;20092;-78
2022/11/25 05:30:00;;;;;;;1.20;0.90;;;;;;;;;;10514573;28;20065;-75
2022/11/25 05:35:02;;;;;;;1.10;0.63;;;;;;;;;;10519058;28;20465;-74
2022/11/25 05:40:06;;;;;;;5.70;1.90;;;;;;;;;;10512412;28;20695;-75
2022/11/25 05:45:11;;;;;;;0.35;0.30;;;;;;;;;;10515601;28;20043;-75
2022/11/25 05:50:14;;;;;;;1.37;0.70;;;;;;;;;;10514136;28;20056;-76
2022/11/25 05:55:16;;;;;;;0.77;0.70;;;;;;;;;;10515802;28;20137;-76
2022/11/25 06:00:20;;;;;;;1.90;1.17;;;;;;;;;;10518758;28;20051;-76
2022/11/25 06:05:28;;;;;;;2.83;1.00;;;;;;;;;;10506540;28;20040;-75
2022/11/25 06:10:30;;;;;;;0.73;0.70;;;;;;;;;;10497515;28;20040;-76
2022/11/25 06:15:34;;;;;;;2.10;1.17;;;;;;;;;;10502664;28;20405;-75
2022/11/25 06:20:37;;;;;;;0.93;0.80;;;;;;;;;;10512514;28;20036;-75
2022/11/25 06:25:39;;;;;;;1.70;0.82;;;;;;;;;;10511033;28;20037;-76
2022/11/25 06:30:44;;;;;;;2.40;0.98;;;;;;;;;;10509704;28;20128;-76
2022/11/25 06:35:47;;;;;;;1.35;0.70;;;;;;;;;;10514650;28;20028;-75
2022/11/25 06:40:49;;;;;;;1.23;0.80;;;;;;;;;;10510362;28;20040;-75
2022/11/25 06:45:53;;;;;;;0.38;0.20;;;;;;;;;;10506084;28;20127;-74
2022/11/25 06:50:57;;;;;;;1.08;0.80;;;;;;;;;;10511484;28;20704;-76
2022/11/25 06:56:07;;;;;;;1.03;0.70;;;;;;;;;;10514862;28;20040;-75
2022/11/25 07:01:13;;;;;;;0.43;0.43;;;;;;;;;;10508721;28;20093;-76
2022/11/25 07:06:17;;;;;;;1.65;0.50;;;;;;;;;;10506686;28;20040;-76
2022/11/25 07:11:21;;;;;;;1.08;0.88;;;;;;;;;;10510910;28;20052;-76
2022/11/25 07:16:25;;;;;;;1.65;1.02;;;;;;;;;;10500978;28;20037;-76
2022/11/25 07:21:29;;;;;;;3.00;1.38;;;;;;;;;;10524230;28;20052;-77
2022/11/25 07:26:35;;;;;;;3.65;1.85;;;;;;;;;;10507710;28;20040;-77
2022/11/25 07:31:37;;;;;;;;;;;;;;;;;;10516332;28;20055;-74
2022/11/25 07:36:41;;;;;;;2.58;1.70;;;;;;;;;;10508223;28;20409;-75
2022/11/25 07:41:45;;;;;;;5.13;1.33;;;;;;;;;;10491762;28;20133;-76
2022/11/25 07:46:49;;;;;;;3.17;1.60;;;;;;;;;;10508260;28;20036;-75
2022/11/25 07:51:55;;;;;;;1.40;1.07;;;;;;;;;;10503001;28;20040;-76
2022/11/25 07:56:58;;;;;;;3.28;1.35;;;;;;;;;;10483776;28;20297;-74
2022/11/25 08:02:01;;;;;;;2.70;1.15;;;;;;;;;;10515675;28;20047;-75
2022/11/25 08:07:06;;;;;;;1.60;0.95;;;;;;;;;;10506073;28;20136;-76
2022/11/25 08:12:09;;;;;;;1.52;1.15;;;;;;;;;;10499157;28;20044;-77
2022/11/25 08:17:22;;;;;;;4.57;1.80;;;;;;;;;;10503514;28;20040;-76
2022/11/25 08:22:26;;;;;;;1.35;1.15;;;;;;;;;;10514182;28;20468;-75
2022/11/25 08:27:28;;;;;;;1.17;0.55;;;;;;;;;;10506221;28;20405;-77
2022/11/25 08:32:31;;;;;;;6.63;2.03;;;;;;;;;;10508662;28;20040;-75
2022/11/25 08:37:40;;;;;;;3.90;1.60;;;;;;;;;;10506304;28;20094;-76
2022/11/25 08:42:44;;;;;;;;;;;;;;;;;;10505289;28;20045;-75
2022/11/25 08:47:47;;;;;;;3.20;1.30;;;;;;;;;;10497472;28;19935;-76
2022/11/25 08:52:52;;;;;;;11.38;1.60;;;;;;;;;;10518895;28;20032;-75
2022/11/25 08:57:57;;;;;;;8.70;3.33;;;;;;;;;;10511699;28;20044;-76
2022/11/25 09:03:09;;;;;;;3.45;1.45;;;;;;;;;;10508543;28;20039;-75
2022/11/25 09:08:14;;;;;;;5.28;1.70;;;;;;;;;;10491871;28;20143;-76
2022/11/25 09:13:17;;;;;;;3.05;1.42;;;;;;;;;;10517753;28;20044;-75
2022/11/25 09:18:24;;;;;;;2.75;1.60;;;;;;;;;;10510958;28;20032;-76
2022/11/25 09:23:28;;;;;;;5.32;2.15;;;;;;;;;;10514044;28;20074;-76
2022/11/25 09:28:32;;;;;;;3.58;1.88;;;;;;;;;;10514805;28;20200;-75
2022/11/25 09:33:35;;;;;;;2.92;1.67;;;;;;;;;;10509834;28;20452;-75
2022/11/25 09:38:50;;;;;;;3.35;2.50;;;;;;;;;;10517652;28;20036;-77
2022/11/25 09:49:38;;;;;;;3.83;2.17;;;;;;;;;;10513431;28;20051;-76
2022/11/25 09:54:45;;;;;;;3.33;2.10;;;;;;;;;;10509078;28;20517;-76
2022/11/25 09:59:50;;;;;;;5.78;2.10;;;;;;;;;;10509467;28;20085;-76
2022/11/25 10:04:58;;;;;;;2.20;2.00;;;;;;;;;;10510864;28;20040;-77
2022/11/25 10:10:03;;;;;;;5.72;2.05;;;;;;;;;;10508578;28;20080;-78
2022/11/25 10:15:12;;;;;;;2.28;2.00;;;;;;;;;;10511342;28;20048;-78
2022/11/25 10:20:17;;;;;;;4.13;1.92;;;;;;;;;;10505640;28;20184;-76
2022/11/25 10:25:22;;;;;;;2.25;1.90;;;;;;;;;;10504471;28;20481;-77
2022/11/25 10:30:26;;;;;;;2.47;2.28;;;;;;;;;;10511439;28;20044;-76
2022/11/25 10:35:31;;;;;;;4.65;3.30;;;;;;;;;;10510755;28;20126;-76
2022/11/25 10:40:35;;;;;;;5.20;2.70;;;;;;;;;;10501801;28;20613;-76
2022/11/25 10:45:40;;;;;;;3.88;2.70;;;;;;;;;;10505561;28;20044;-78
2022/11/25 10:50:51;;;;;;;3.88;1.90;;;;;;;;;;10507319;28;20135;-76
2022/11/25 10:56:00;;;;;;;2.85;2.17;;;;;;;;;;10506571;28;20040;-75
2022/11/25 11:01:04;;;;;;;2.40;2.00;;;;;;;;;;10504277;28;20394;-77
2022/11/25 11:06:27;;;;;;;2.92;2.20;;;;;;;;;;10510754;28;20449;-76
2022/11/25 11:11:32;;;;;;;4.22;1.65;;;;;;;;;;10501697;28;20035;-76
2022/11/25 11:16:36;;;;;;;4.45;1.67;;;;;;;;;;10510437;28;20051;-76
2022/11/25 11:21:41;;;;;;;1.75;0.77;;;;;;;;;;10508481;28;20052;-75
2022/11/25 11:26:45;;;;;;;1.42;0.93;;;;;;;;;;10497775;28;20488;-75
2022/11/25 11:31:50;;;;;;;3.03;1.17;;;;;;;;;;10494115;28;20443;-76
2022/11/25 11:37:13;;;;;;;3.33;1.02;;;;;;;;;;10511949;28;20094;-76
2022/11/25 11:42:22;;;;;;;1.98;1.00;;;;;;;;;;10506762;28;20418;-74
2022/11/25 11:47:30;;;;;;;2.60;1.20;;;;;;;;;;10482857;28;20098;-76
2022/11/25 11:52:40;;;;;;;5.28;1.42;;;;;;;;;;10522224;28;20047;-75
2022/11/25 11:57:50;;;;;;;3.13;1.30;;;;;;;;;;10517388;28;20097;-76
2022/11/25 12:03:00;;;;;;;3.50;1.38;;;;;;;;;;10521528;28;20051;-76
2022/11/25 12:08:06;;;;;;;2.45;1.75;;;;;;;;;;10519639;28;20047;-75
2022/11/25 12:13:15;;;;;;;3.33;1.73;;;;;;;;;;10515743;28;20098;-76
2022/11/25 12:18:24;;;;;;;5.45;1.60;;;;;;;;;;10518093;28;20514;-75
2022/11/25 12:23:28;;;;;;;2.33;1.70;;;;;;;;;;10516165;28;20068;-75
2022/11/25 12:28:35;;;;;;;3.40;1.70;;;;;;;;;;10519698;28;20443;-75
2022/11/25 12:33:43;;;;;;;3.47;1.50;;;;;;;;;;10520130;28;20343;-76
2022/11/25 12:38:49;;;;;;;1.63;1.45;;;;;;;;;;10519943;28;20044;-76
2022/11/25 12:43:56;;;;;;;4.40;1.80;;;;;;;;;;10512901;28;20049;-76
2022/11/25 12:48:59;;;;;;;2.38;1.45;;;;;;;;;;10524270;28;20047;-76
2022/11/25 12:54:08;;;;;;;2.35;0.95;;;;;;;;;;10518381;28;20463;-75
2022/11/25 12:59:27;;;;;;;13.25;3.75;;;;;;;;;;10524275;28;20044;-75
2022/11/25 13:04:45;;;;;;;3.47;1.20;;;;;;;;;;10517330;28;20051;-76
2022/11/25 13:10:07;;;;;;;5.07;1.00;;;;;;;;;;10522024;28;20036;-76
2022/11/25 13:15:23;;;;;;;3.50;1.15;;;;;;;;;;10513346;28;20569;-76
2022/11/25 13:20:39;;;;;;;3.03;0.90;;;;;;;;;;10516902;28;20071;-76
2022/11/25 13:25:43;;;;;;;2.67;1.20;;;;;;;;;;10518682;28;20113;-74
2022/11/25 13:30:50;;;;;;;2.80;1.20;;;;;;;;;;10516333;28;20531;-74
2022/11/25 13:35:53;;;;;;;8.15;1.38;;;;;;;;;;10495147;28;20037;-74
2022/11/25 13:40:57;;;;;;;3.93;1.40;;;;;;;;;;10517187;28;20501;-75
2022/11/25 13:46:01;;;;;;;1.80;0.90;;;;;;;;;;10501758;28;20556;-75
2022/11/25 13:51:16;;;;;;;3.40;1.10;;;;;;;;;;10514724;28;20032;-76
2022/11/25 13:56:25;;;;;;;3.55;1.38;;;;;;;;;;10514751;28;20408;-75
2022/11/25 14:01:29;;;;;;;4.72;1.00;;;;;;;;;;10494972;28;20036;-75
2022/11/25 14:06:50;;;;;;;2.13;1.20;;;;;;;;;;10520923;28;20459;-76
2022/11/25 14:12:09;;;;;;;7.68;1.70;;;;;;;;;;10515963;28;20122;-76
2022/11/25 14:17:23;;;;;;;2.50;1.05;;;;;;;;;;10517383;28;20658;-74
2022/11/25 14:22:35;;;;;;;4.10;1.27;;;;;;;;;;10519022;28;20534;-75
2022/11/25 14:27:38;;;;;;;5.10;1.40;;;;;;;;;;10510907;28;20040;-76
2022/11/25 14:32:44;;;;;;;4.57;1.50;;;;;;;;;;10521395;28;20098;-77
2022/11/25 14:37:48;;;;;;;4.63;1.92;;;;;;;;;;10521374;28;20453;-75
2022/11/25 14:42:54;;;;;;;5.05;1.55;;;;;;;;;;10523094;28;20523;-73
2022/11/25 14:47:58;;;;;;;4.72;1.90;;;;;;;;;;10517337;28;20036;-75
2022/11/25 14:53:00;;;;;;;;;;;;;;;;;;10522162;28;20620;-75
2022/11/25 14:58:03;;;;;;;4.72;2.40;;;;;;;;;;10515309;28;20001;-74
2022/11/25 15:03:17;;;;;;;2.00;1.17;;;;;;;;;;10507136;28;20101;-75
2022/11/25 15:08:25;;;;;;;4.55;1.75;;;;;;;;;;10493601;28;20036;-74
2022/11/25 15:13:30;;;;;;;3.05;1.65;;;;;;;;;;10497563;28;20053;-74
2022/11/25 15:18:35;;;;;;;4.78;1.80;;;;;;;;;;10503162;28;20053;-74
2022/11/25 15:23:39;;;;;;;6.15;2.10;;;;;;;;;;10493229;28;20043;-75
2022/11/25 15:28:41;;;;;;;5.82;2.00;;;;;;;;;;10508359;28;20036;-75
2022/11/25 15:33:45;;;;;;;5.30;1.38;;;;;;;;;;10519674;28;20044;-76
2022/11/25 15:38:48;;;;;;;6.35;1.75;;;;;;;;;;10510401;28;20037;-75
2022/11/25 15:43:53;;;;;;;5.40;1.80;;;;;;;;;;10514146;28;20059;-74
2022/11/25 15:48:58;;;;;;;8.52;2.22;;;;;;;;;;10519183;28;20033;-77
2022/11/25 15:54:02;;;;;;;1.98;1.10;;;;;;;;;;10515633;28;20048;-77
2022/11/25 15:59:05;;;;;;;6.95;2.00;;;;;;;;;;10517156;28;20044;-75
2022/11/25 16:04:18;;;;;;;5.90;1.77;;;;;;;;;;10512809;28;20044;-75
2022/11/25 16:09:22;;;;;;;7.35;1.83;;;;;;;;;;10510919;28;20044;-76
2022/11/25 16:14:34;;;;;;;3.60;1.05;;;;;;;;;;10485264;28;20048;-76
2022/11/25 16:19:40;;;;;;;7.07;1.90;;;;;;;;;;10520360;28;20036;-74
2022/11/25 16:24:49;;;;;;;3.80;1.60;;;;;;;;;;10517872;28;20036;-74
2022/11/25 16:29:54;;;;;;;3.55;1.40;;;;;;;;;;10518539;28;20424;-76
2022/11/25 16:35:21;;;;;;;3.08;1.33;;;;;;;;;;10511610;28;20067;-77
2022/11/25 16:40:26;;;;;;;5.10;1.20;;;;;;;;;;10519347;28;20039;-75
2022/11/25 16:45:29;;;;;;;4.90;2.10;;;;;;;;;;10498098;28;20044;-75
2022/11/25 16:50:34;;;;;;;4.43;1.63;;;;;;;;;;10519092;28;20047;-76
2022/11/25 16:55:38;;;;;;;6.28;2.28;;;;;;;;;;10520631;28;20060;-76
2022/11/25 17:00:40;;;;;;;6.87;1.97;;;;;;;;;;10513048;28;20048;-78
2022/11/25 17:05:45;;;;;;;8.95;2.20;;;;;;;;;;10515238;28;20044;-75
2022/11/25 17:10:49;;;;;;;4.55;1.85;;;;;;;;;;10515854;28;20029;-75
2022/11/25 17:15:52;;;;;;;8.10;2.35;;;;;;;;;;10512520;28;20069;-74
2022/11/25 17:20:56;;;;;;;6.93;2.75;;;;;;;;;;10524471;28;20040;-74
2022/11/25 17:25:59;;;;;;;6.13;2.75;;;;;;;;;;10512467;28;20052;-75
2022/11/25 17:31:05;;;;;;;5.93;3.03;;;;;;;;;;10529257;28;20236;-73
2022/11/25 17:36:10;;;;;;;7.28;3.28;;;;;;;;;;10524760;28;20052;-73
2022/11/25 17:41:19;;;;;;;6.72;2.58;;;;;;;;;;10520382;28;20043;-74
2022/11/25 17:46:23;;;;;;;8.13;3.72;;;;;;;;;;10515904;28;20503;-76
2022/11/25 17:51:27;;;;;;;11.50;4.18;;;;;;;;;;10511304;28;20397;-75
2022/11/25 17:56:31;;;;;;;;;;;;;;;;;;10515113;28;20073;-75
2022/11/25 18:01:33;;;;;;;9.38;5.15;;;;;;;;;;10516110;28;19964;-75
2022/11/25 18:06:37;;;;;;;14.25;5.03;;;;;;;;;;10516443;28;20134;-74
2022/11/25 18:11:42;;;;;;;14.35;5.47;;;;;;;;;;10508312;28;20379;-75
2022/11/25 18:16:48;;;;;;;10.32;5.18;;;;;;;;;;10514883;28;20041;-75
2022/11/25 18:21:52;;;;;;;11.00;4.38;;;;;;;;;;10519644;28;20127;-75
2022/11/25 18:26:56;;;;;;;8.50;4.20;;;;;;;;;;10525792;28;20044;-75
2022/11/25 18:31:59;;;;;;;4.88;2.70;;;;;;;;;;10510133;28;20032;-75
2022/11/25 18:37:03;;;;;;;8.88;4.60;;;;;;;;;;10506434;28;20087;-74
2022/11/25 18:42:06;;;;;;;10.30;4.75;;;;;;;;;;10517093;28;20043;-78
2022/11/25 18:47:09;;;;;;;7.10;3.45;;;;;;;;;;10508502;28;20266;-75
2022/11/25 18:52:13;;;;;;;9.77;4.43;;;;;;;;;;10515240;28;20033;-75
2022/11/25 18:57:16;;;;;;;7.78;4.05;;;;;;;;;;10515840;28;20100;-75
2022/11/25 19:02:18;;;;;;;9.05;4.40;;;;;;;;;;10509738;28;20528;-75
2022/11/25 19:07:23;;;;;;;10.02;4.55;;;;;;;;;;10503401;28;20071;-76
2022/11/25 19:12:25;;;;;;;8.38;3.42;;;;;;;;;;10492103;28;20059;-75
2022/11/25 19:17:28;;;;;;;11.30;3.90;;;;;;;;;;10509141;28;20362;-75
2022/11/25 19:22:32;;;;;;;6.35;2.67;;;;;;;;;;10495783;28;20059;-76
2022/11/25 19:27:36;;;;;;;7.20;2.75;;;;;;;;;;10521519;28;20420;-77
2022/11/25 19:32:39;;;;;;;10.50;4.82;;;;;;;;;;10512080;28;20051;-75
2022/11/25 19:37:43;;;;;;;8.50;3.75;;;;;;;;;;10511681;28;20604;-75
2022/11/25 19:42:47;;;;;;;5.78;2.35;;;;;;;;;;10514504;28;20474;-75
2022/11/25 19:47:51;;;;;;;14.13;4.15;;;;;;;;;;10509360;28;20501;-75
2022/11/25 19:52:56;;;;;;;9.43;3.85;;;;;;;;;;10491432;28;20040;-76
2022/11/25 19:57:59;;;;;;;7.05;3.42;;;;;;;;;;10519709;28;20064;-75
2022/11/25 20:03:01;;;;;;;6.68;3.55;;;;;;;;;;10513661;28;20044;-75
2022/11/25 20:08:06;;;;;;;14.07;5.57;;;;;;;;;;10510406;28;20505;-75
2022/11/25 20:13:09;;;;;;;11.95;4.07;;;;;;;;;;10496645;28;20044;-76
2022/11/25 20:18:13;;;;;;;11.87;5.17;;;;;;;;;;10522801;28;20055;-75
2022/11/25 20:23:24;;;;;;;4.55;2.03;;;;;;;;;;10522472;28;20043;-75
2022/11/25 20:28:28;;;;;;;11.23;4.80;;;;;;;;;;10535775;28;20067;-74
2022/11/25 20:33:31;;;;;;;6.53;2.78;;;;;;;;;;10502015;28;20142;-75
2022/11/25 20:38:36;;;;;;;8.30;4.25;;;;;;;;;;10522951;28;20512;-76
2022/11/25 20:43:42;;;;;;;13.02;5.10;;;;;;;;;;10517680;28;20074;-76
2022/11/25 20:48:45;;;;;;;4.40;2.67;;;;;;;;;;10515385;28;20073;-75
2022/11/25 20:53:51;;;;;;;6.35;2.72;;;;;;;;;;10523397;28;20382;-75
2022/11/25 20:58:54;;;;;;;14.52;5.22;;;;;;;;;;10515493;28;20044;-74
2022/11/25 21:03:57;;;;;;;9.20;4.60;;;;;;;;;;10517914;28;20464;-76
2022/11/25 21:09:01;;;;;;;9.82;4.53;;;;;;;;;;10514098;28;20044;-77
2022/11/25 21:14:06;;;;;;;11.85;4.07;;;;;;;;;;10515059;28;20036;-75
2022/11/25 21:19:08;;;;;;;14.10;3.67;;;;;;;;;;10513160;28;20044;-76
2022/11/25 21:24:17;;;;;;;11.43;4.75;;;;;;;;;;10518514;28;20527;-75
2022/11/25 21:29:20;;;;;;;5.53;2.90;;;;;;;;;;10522356;28;20400;-75
2022/11/25 21:34:23;;;;;;;12.82;5.25;;;;;;;;;;10505265;28;20059;-75
2022/11/25 21:39:29;;;;;;;2.78;1.88;;;;;;;;;;10518113;28;20463;-75
2022/11/25 21:44:32;;;;;;;6.53;3.30;;;;;;;;;;10517680;28;20048;-75
2022/11/25 21:49:35;;;;;;;7.38;4.00;;;;;;;;;;10505543;28;20509;-75
2022/11/25 21:54:39;;;;;;;4.63;2.45;;;;;;;;;;10514832;28;20043;-76
2022/11/25 21:59:44;;;;;;;8.18;3.35;;;;;;;;;;10510795;28;20040;-76
2022/11/25 22:04:52;;;;;;;6.32;3.00;;;;;;;;;;10514417;28;20048;-75
2022/11/25 22:09:56;;;;;;;7.25;3.47;;;;;;;;;;10516865;28;20110;-75
2022/11/25 22:14:59;;;;;;;9.18;3.58;;;;;;;;;;10516142;28;20040;-76
2022/11/25 22:20:01;;;;;;;13.13;5.83;;;;;;;;;;10515796;28;20036;-75
2022/11/25 22:25:06;;;;;;;7.63;3.85;;;;;;;;;;10510466;28;20040;-75
2022/11/25 22:30:12;;;;;;;11.20;4.47;;;;;;;;;;10503358;28;20036;-76
2022/11/25 22:35:15;;;;;;;12.00;4.78;;;;;;;;;;10507354;28;20097;-75
2022/11/25 22:40:19;;;;;;;9.57;3.40;;;;;;;;;;10517614;28;20122;-75
2022/11/25 22:45:26;;;;;;;11.13;4.45;;;;;;;;;;10517203;28;20122;-75
2022/11/25 22:50:30;;;;;;;8.63;3.75;;;;;;;;;;10524985;28;20511;-74
2022/11/25 22:55:34;;;;;;;11.52;4.50;;;;;;;;;;10498481;28;20044;-74
2022/11/25 23:00:39;;;;;;;13.40;5.32;;;;;;;;;;10515100;28;20066;-75
2022/11/25 23:05:42;;;;;;;6.35;3.22;;;;;;;;;;10519476;28;20584;-75
2022/11/25 23:10:48;;;;;;;7.50;2.90;;;;;;;;;;10509644;28;20051;-75
2022/11/25 23:15:53;;;;;;;12.18;4.72;;;;;;;;;;10506613;28;20119;-74
2022/11/25 23:20:55;;;;;;;14.75;4.43;;;;;;;;;;10510673;28;20040;-74
2022/11/25 23:26:00;;;;;;;17.38;4.82;;;;;;;;;;10517513;28;20102;-75
2022/11/25 23:31:02;;;;;;;11.88;3.72;;;;;;;;;;10507558;28;20045;-74
2022/11/25 23:36:08;;;;;;;11.63;4.45;;;;;;;;;;10521201;28;20039;-75
2022/11/25 23:41:15;;;;;;;10.48;4.32;;;;;;;;;;10491671;28;20105;-74
2022/11/25 23:46:20;;;;;;;13.57;4.38;;;;;;;;;;10511435;28;20040;-76
2022/11/25 23:51:23;;;;;;;4.40;2.00;;;;;;;;;;10512585;28;20529;-76
2022/11/25 23:56:28;;;;;;;2.30;1.60;;;;;;;;;;10511230;28;20135;-74
